Time;durP1;ratioP1;P1;durP2;ratioP2;P2;SDS_P1;SDS_P2;PMS_P1;PMS_P2;Temp;Humidity;BMP_temperature;BMP_pressure;BME280_temperature;BME280_humidity;BME280_pressure;Samples;Min_cycle;Max_cycle;Signal;HPM_P1;HPM_P2
2022/11/30 00:01:18;;;;;;;11.75;9.07;;;2.90;99.90;;;;;;5061476;28;20045;-65
2022/11/30 00:03:45;;;;;;;12.80;9.40;;;2.90;99.90;;;;;;5074240;28;20479;-62
2022/11/30 00:06:15;;;;;;;11.85;10.52;;;2.90;99.90;;;;;;5060723;28;20152;-64
2022/11/30 00:08:42;;;;;;;13.32;10.43;;;2.90;99.90;;;;;;5057018;28;20055;-62
2022/11/30 00:11:16;;;;;;;15.80;12.05;;;2.90;99.90;;;;;;5063676;28;20071;-62
2022/11/30 00:13:43;;;;;;;13.45;9.80;;;2.90;99.90;;;;;;5067776;28;20052;-62
2022/11/30 00:16:10;;;;;;;16.33;12.82;;;2.90;99.90;;;;;;5061503;28;20048;-61
2022/11/30 00:18:37;;;;;;;16.27;11.80;;;2.90;99.90;;;;;;5062555;28;20051;-62
2022/11/30 00:21:07;;;;;;;14.95;11.32;;;2.90;99.90;;;;;;5063352;28;20064;-62
2022/11/30 00:23:39;;;;;;;13.75;10.68;;;2.90;99.90;;;;;;5064516;28;20144;-62
2022/11/30 00:26:09;;;;;;;15.02;10.70;;;3.00;99.90;;;;;;5060063;28;20056;-62
2022/11/30 00:28:37;;;;;;;13.80;11.02;;;2.90;99.90;;;;;;5058689;28;20122;-65
2022/11/30 00:31:12;;;;;;;13.13;10.27;;;2.90;99.90;;;;;;5061034;28;20096;-62
2022/11/30 00:33:40;;;;;;;13.88;9.70;;;2.90;99.90;;;;;;5061509;28;20158;-63
2022/11/30 00:36:15;;;;;;;14.88;9.38;;;2.90;99.90;;;;;;5061485;28;20059;-61
2022/11/30 00:38:42;;;;;;;15.68;10.93;;;2.90;99.90;;;;;;5060794;28;20055;-62
2022/11/30 00:41:10;;;;;;;13.20;9.02;;;2.90;99.90;;;;;;5058806;28;20103;-61
2022/11/30 00:43:37;;;;;;;13.60;11.00;;;2.90;99.90;;;;;;5060559;28;20051;-64
2022/11/30 00:46:04;;;;;;;13.77;9.73;;;2.90;99.90;;;;;;5063746;28;20064;-61
2022/11/30 00:48:32;;;;;;;13.68;11.73;;;2.90;99.90;;;;;;5058981;28;20118;-62
2022/11/30 00:50:59;;;;;;;14.18;10.15;;;2.90;99.90;;;;;;5063973;28;20068;-62
2022/11/30 00:53:26;;;;;;;15.05;10.52;;;2.90;99.90;;;;;;5054952;28;20463;-62
2022/11/30 00:55:53;;;;;;;13.98;9.82;;;2.90;99.90;;;;;;5057787;28;20059;-62
2022/11/30 00:58:20;;;;;;;15.75;11.75;;;2.90;99.90;;;;;;5063199;28;20045;-62
2022/11/30 01:00:47;;;;;;;16.10;11.32;;;2.90;99.90;;;;;;5062426;28;20045;-62
2022/11/30 01:03:14;;;;;;;15.23;10.98;;;2.90;99.90;;;;;;5064397;28;20087;-61
2022/11/30 01:05:44;;;;;;;15.70;10.77;;;2.90;99.90;;;;;;5065964;28;20155;-62
2022/11/30 01:08:12;;;;;;;14.10;10.88;;;2.90;99.90;;;;;;5064074;28;20057;-65
2022/11/30 01:10:40;;;;;;;13.57;10.98;;;2.90;99.90;;;;;;5058366;28;20056;-63
2022/11/30 01:13:08;;;;;;;14.68;10.35;;;2.90;99.90;;;;;;5059283;28;20135;-63
2022/11/30 01:15:37;;;;;;;15.23;10.75;;;2.90;99.90;;;;;;5062924;28;20469;-65
2022/11/30 01:18:05;;;;;;;19.02;11.88;;;2.90;99.90;;;;;;5064541;28;20586;-63
2022/11/30 01:20:32;;;;;;;14.25;9.98;;;2.90;99.90;;;;;;5064422;28;20277;-62
2022/11/30 01:22:58;;;;;;;16.42;10.88;;;2.90;99.90;;;;;;5059574;28;20155;-64
2022/11/30 01:25:25;;;;;;;15.88;11.40;;;2.90;99.90;;;;;;5061662;28;20072;-62
2022/11/30 01:27:52;;;;;;;17.92;12.18;;;2.90;99.90;;;;;;5058427;28;20139;-61
2022/11/30 01:30:19;;;;;;;15.38;11.70;;;2.90;99.90;;;;;;5059633;28;20078;-63
2022/11/30 01:32:46;;;;;;;14.85;11.38;;;2.90;99.90;;;;;;5060160;28;20055;-61
2022/11/30 01:35:13;;;;;;;16.65;12.02;;;2.90;99.90;;;;;;5063793;28;20478;-62
2022/11/30 01:37:40;;;;;;;14.90;12.70;;;2.90;99.90;;;;;;5064038;28;20076;-62
2022/11/30 01:40:08;;;;;;;18.42;11.98;;;2.90;99.90;;;;;;5063026;28;20048;-61
2022/11/30 01:42:36;;;;;;;14.95;10.57;;;2.90;99.90;;;;;;5058545;28;20533;-62
2022/11/30 01:45:04;;;;;;;14.63;10.18;;;2.90;99.90;;;;;;5063501;28;20041;-62
2022/11/30 01:47:39;;;;;;;16.80;12.23;;;2.90;99.90;;;;;;5060966;28;20052;-61
2022/11/30 01:50:15;;;;;;;15.15;10.43;;;2.90;99.90;;;;;;5057320;28;20045;-63
2022/11/30 01:52:45;;;;;;;16.42;11.02;;;2.90;99.90;;;;;;5057438;28;20055;-61
2022/11/30 01:55:30;;;;;;;15.32;11.25;;;2.90;99.90;;;;;;5059900;28;20048;-61
2022/11/30 01:58:22;;;;;;;15.48;11.40;;;2.90;99.90;;;;;;5057443;28;20059;-61
2022/11/30 02:00:50;;;;;;;18.35;12.15;;;2.90;99.90;;;;;;5075043;28;20058;-63
2022/11/30 02:03:27;;;;;;;17.35;11.95;;;2.80;99.90;;;;;;5062147;28;20830;-61
2022/11/30 02:05:54;;;;;;;17.35;12.57;;;2.90;99.90;;;;;;5073402;28;20117;-65
2022/11/30 02:08:21;;;;;;;15.02;10.90;;;2.80;99.90;;;;;;5056132;28;20053;-62
2022/11/30 02:10:57;;;;;;;16.92;12.10;;;2.90;99.90;;;;;;5059375;28;20467;-61
2022/11/30 02:13:26;;;;;;;14.98;11.27;;;2.90;99.90;;;;;;5056456;28;20135;-63
2022/11/30 02:16:15;;;;;;;15.35;10.50;;;2.90;99.90;;;;;;5058444;28;20113;-61
2022/11/30 02:18:47;;;;;;;15.70;11.32;;;2.90;99.90;;;;;;5058490;28;20052;-65
2022/11/30 02:21:28;;;;;;;16.00;12.20;;;2.90;99.90;;;;;;5059855;28;20135;-62
2022/11/30 02:24:15;;;;;;;;;;;2.90;99.90;;;;;;5058485;28;20084;-64
2022/11/30 02:26:50;;;;;;;16.38;12.05;;;2.90;99.90;;;;;;5056562;28;20317;-62
2022/11/30 02:29:36;;;;;;;13.80;11.13;;;2.90;99.90;;;;;;5056840;28;20043;-63
2022/11/30 02:32:34;;;;;;;15.50;10.73;;;2.90;99.90;;;;;;5050699;28;20458;-61
2022/11/30 02:35:03;;;;;;;15.48;10.65;;;2.90;99.90;;;;;;5037699;28;20099;-61
2022/11/30 02:37:32;;;;;;;15.45;11.40;;;2.80;99.90;;;;;;5036914;28;20151;-62
2022/11/30 02:39:59;;;;;;;15.23;10.80;;;2.80;99.90;;;;;;5041009;28;20049;-62
2022/11/30 02:42:27;;;;;;;16.50;11.30;;;2.80;99.90;;;;;;5037280;28;20041;-61
2022/11/30 02:44:54;;;;;;;17.63;11.70;;;2.80;99.90;;;;;;5043924;28;20137;-61
2022/11/30 02:47:30;;;;;;;17.77;13.57;;;2.90;99.90;;;;;;5034214;28;20049;-62
2022/11/30 02:50:22;;;;;;;16.80;11.15;;;2.80;99.90;;;;;;5041053;28;20132;-62
2022/11/30 02:52:51;;;;;;;17.85;13.32;;;2.80;99.90;;;;;;5036798;28;20044;-62
2022/11/30 02:55:19;;;;;;;20.92;14.05;;;2.80;99.90;;;;;;5039414;28;20072;-63
2022/11/30 02:57:46;;;;;;;15.45;11.10;;;2.80;99.90;;;;;;5035250;28;20768;-62
2022/11/30 03:00:14;;;;;;;18.35;14.13;;;2.80;99.90;;;;;;5038081;28;20132;-64
2022/11/30 03:02:41;;;;;;;20.15;14.43;;;2.80;99.90;;;;;;5037856;28;20050;-63
2022/11/30 03:05:08;;;;;;;18.90;13.95;;;2.80;99.90;;;;;;5039514;28;20045;-61
2022/11/30 03:07:35;;;;;;;21.45;15.23;;;2.80;99.90;;;;;;5039423;28;20470;-62
2022/11/30 03:10:03;;;;;;;20.83;14.68;;;2.90;99.90;;;;;;5039503;28;20144;-62
2022/11/30 03:12:30;;;;;;;21.17;14.02;;;2.90;99.90;;;;;;5056550;28;20057;-62
2022/11/30 03:14:57;;;;;;;22.65;14.77;;;2.90;99.90;;;;;;5053442;28;20044;-62
2022/11/30 03:17:24;;;;;;;19.55;12.32;;;2.90;99.90;;;;;;5053785;28;20401;-62
2022/11/30 03:19:51;;;;;;;21.13;13.25;;;2.90;99.90;;;;;;5055792;28;20041;-61
2022/11/30 03:22:17;;;;;;;17.60;13.23;;;2.80;99.90;;;;;;5055467;28;20159;-63
2022/11/30 03:24:44;;;;;;;18.65;12.32;;;2.80;99.90;;;;;;5053362;28;20123;-62
2022/11/30 03:27:12;;;;;;;16.15;11.63;;;2.80;99.90;;;;;;5058539;28;20041;-61
2022/11/30 03:29:39;;;;;;;15.52;9.65;;;2.80;99.90;;;;;;5060778;28;20567;-62
2022/11/30 03:32:06;;;;;;;13.48;9.98;;;2.80;99.90;;;;;;5060555;28;20048;-63
2022/11/30 03:34:33;;;;;;;12.93;9.95;;;2.80;99.90;;;;;;5055143;28;20409;-63
2022/11/30 03:37:00;;;;;;;13.07;10.55;;;2.80;99.90;;;;;;5059703;28;20047;-62
2022/11/30 03:39:27;;;;;;;13.88;8.88;;;2.80;99.90;;;;;;5056240;28;20171;-65
2022/11/30 03:41:54;;;;;;;12.80;9.13;;;2.80;99.90;;;;;;5053932;28;20053;-62
2022/11/30 03:44:21;;;;;;;14.57;9.38;;;2.70;99.90;;;;;;5057158;28;20422;-61
2022/11/30 03:46:47;;;;;;;16.42;10.70;;;2.80;99.90;;;;;;5038941;28;20136;-63
2022/11/30 03:49:14;;;;;;;12.57;8.38;;;2.80;99.90;;;;;;5037944;28;20045;-62
2022/11/30 03:51:41;;;;;;;10.38;7.80;;;2.70;99.90;;;;;;5039834;28;20624;-63
2022/11/30 03:54:08;;;;;;;11.32;8.05;;;2.80;99.90;;;;;;5043126;28;20045;-62
2022/11/30 03:56:35;;;;;;;11.88;8.32;;;2.70;99.90;;;;;;5029869;28;20164;-62
2022/11/30 03:59:02;;;;;;;12.60;8.38;;;2.80;99.90;;;;;;5043544;28;20410;-62
2022/11/30 04:01:29;;;;;;;13.02;9.57;;;2.70;99.90;;;;;;5040017;28;20041;-62
2022/11/30 04:03:56;;;;;;;13.35;9.05;;;2.80;99.90;;;;;;5033447;28;20051;-62
2022/11/30 04:06:23;;;;;;;14.15;8.02;;;2.80;99.90;;;;;;5037095;28;20050;-62
2022/11/30 04:08:50;;;;;;;12.80;9.35;;;2.70;99.90;;;;;;5040776;28;20044;-65
2022/11/30 04:11:17;;;;;;;13.77;10.45;;;2.80;99.90;;;;;;5033162;28;20572;-62
2022/11/30 04:13:44;;;;;;;12.80;8.63;;;2.80;99.90;;;;;;5041128;28;20075;-62
2022/11/30 04:16:11;;;;;;;12.15;9.02;;;2.80;99.90;;;;;;5037133;28;20241;-61
2022/11/30 04:18:39;;;;;;;14.88;10.75;;;2.80;99.90;;;;;;5035699;28;20133;-62
2022/11/30 04:21:06;;;;;;;13.18;9.55;;;2.80;99.90;;;;;;5037283;28;20156;-61
2022/11/30 04:23:36;;;;;;;12.27;9.43;;;2.80;99.90;;;;;;5036664;28;20606;-63
2022/11/30 04:26:04;;;;;;;14.32;9.65;;;2.80;99.90;;;;;;5038294;28;20080;-67
2022/11/30 04:28:32;;;;;;;14.00;9.98;;;2.80;99.90;;;;;;5057506;28;20045;-62
2022/11/30 04:30:59;;;;;;;15.85;9.50;;;2.80;99.90;;;;;;5055220;28;20045;-64
2022/11/30 04:33:27;;;;;;;13.02;10.20;;;2.80;99.90;;;;;;5060778;28;20051;-62
2022/11/30 04:35:57;;;;;;;16.40;11.05;;;2.80;99.90;;;;;;5059354;28;20428;-62
2022/11/30 04:38:25;;;;;;;15.13;10.15;;;2.80;99.90;;;;;;5053201;28;20106;-62
2022/11/30 04:40:52;;;;;;;16.20;10.18;;;2.80;99.90;;;;;;5064052;28;20045;-62
2022/11/30 04:43:19;;;;;;;14.38;9.73;;;2.80;99.90;;;;;;5059922;28;20055;-62
2022/11/30 04:45:46;;;;;;;17.40;11.10;;;2.80;99.90;;;;;;5058302;28;20054;-62
2022/11/30 04:48:15;;;;;;;17.20;11.10;;;2.80;99.90;;;;;;5060354;28;20175;-62
2022/11/30 04:50:42;;;;;;;14.73;10.38;;;2.70;99.90;;;;;;5064255;28;20155;-61
2022/11/30 04:53:10;;;;;;;15.88;10.07;;;2.70;99.90;;;;;;5057004;28;20120;-62
2022/11/30 04:55:38;;;;;;;16.65;10.50;;;2.80;99.90;;;;;;5062661;28;20048;-62
2022/11/30 04:58:05;;;;;;;21.20;12.63;;;2.70;99.90;;;;;;5063852;28;20097;-62
2022/11/30 05:00:33;;;;;;;17.90;11.77;;;2.80;99.90;;;;;;5060731;28;20126;-63
2022/11/30 05:03:00;;;;;;;36.33;10.70;;;2.80;99.90;;;;;;5061500;28;20467;-62
2022/11/30 05:05:27;;;;;;;17.55;11.07;;;2.70;99.90;;;;;;5064520;28;20566;-62
2022/11/30 05:07:56;;;;;;;16.85;10.75;;;2.80;99.90;;;;;;5059290;28;20072;-62
2022/11/30 05:10:24;;;;;;;18.55;12.55;;;2.70;99.90;;;;;;5062386;27;20143;-64
2022/11/30 05:12:51;;;;;;;16.65;12.25;;;2.70;99.90;;;;;;5059251;28;20127;-62
2022/11/30 05:15:18;;;;;;;17.33;12.70;;;2.70;99.90;;;;;;5056820;28;20041;-64
2022/11/30 05:17:45;;;;;;;16.58;12.98;;;2.70;99.90;;;;;;5062097;28;20687;-62
2022/11/30 05:20:12;;;;;;;15.88;10.68;;;2.70;99.90;;;;;;5060672;28;20127;-61
2022/11/30 05:22:40;;;;;;;17.23;11.88;;;2.70;99.90;;;;;;5061460;28;20140;-62
2022/11/30 05:25:08;;;;;;;22.50;11.55;;;2.70;99.90;;;;;;5059291;28;20076;-62
2022/11/30 05:27:35;;;;;;;18.35;11.40;;;2.70;99.90;;;;;;5064031;28;20083;-62
2022/11/30 05:30:03;;;;;;;20.33;12.25;;;2.60;99.90;;;;;;5059391;28;20513;-62
2022/11/30 05:32:30;;;;;;;18.52;12.40;;;2.60;99.90;;;;;;5053953;28;20063;-61
2022/11/30 05:34:57;;;;;;;17.00;12.07;;;2.60;99.90;;;;;;5057788;27;20167;-62
2022/11/30 05:37:24;;;;;;;19.20;11.85;;;2.60;99.90;;;;;;5062654;28;20048;-64
2022/11/30 05:39:51;;;;;;;22.27;12.35;;;2.60;99.90;;;;;;5059869;28;20144;-61
2022/11/30 05:42:18;;;;;;;18.73;11.77;;;2.60;99.90;;;;;;5055402;28;20102;-62
2022/11/30 05:44:46;;;;;;;19.65;11.88;;;2.60;99.90;;;;;;5064109;28;20051;-63
2022/11/30 05:47:14;;;;;;;18.80;11.43;;;2.60;99.90;;;;;;5055930;28;20433;-62
2022/11/30 05:49:41;;;;;;;17.83;12.35;;;2.60;99.90;;;;;;5062804;28;20359;-61
2022/11/30 05:52:08;;;;;;;18.00;11.98;;;2.60;99.90;;;;;;5062239;28;20044;-62
2022/11/30 05:54:35;;;;;;;18.58;11.00;;;2.60;99.90;;;;;;5056217;28;20131;-62
2022/11/30 05:57:04;;;;;;;15.73;11.40;;;2.60;99.90;;;;;;5061831;28;20044;-62
2022/11/30 05:59:31;;;;;;;18.50;12.40;;;2.60;99.90;;;;;;5064789;28;20068;-62
2022/11/30 06:01:58;;;;;;;16.30;11.40;;;2.50;99.90;;;;;;5055506;28;20132;-64
2022/11/30 06:04:25;;;;;;;15.38;11.23;;;2.50;99.90;;;;;;5055161;28;20409;-63
2022/11/30 06:06:54;;;;;;;18.75;12.45;;;2.60;99.90;;;;;;5056159;28;20041;-64
2022/11/30 06:09:22;;;;;;;18.92;12.05;;;2.50;99.90;;;;;;5053568;28;20164;-62
2022/11/30 06:11:49;;;;;;;15.05;9.52;;;2.50;99.90;;;;;;5052057;28;20439;-65
2022/11/30 06:14:16;;;;;;;16.48;10.05;;;2.50;99.90;;;;;;5060866;28;20044;-63
2022/11/30 06:16:43;;;;;;;21.25;12.23;;;2.50;99.90;;;;;;5056752;28;20427;-64
2022/11/30 06:19:10;;;;;;;17.40;11.15;;;2.50;99.90;;;;;;5053489;28;20487;-66
2022/11/30 06:21:37;;;;;;;18.63;11.55;;;2.50;99.90;;;;;;5054720;28;20114;-63
2022/11/30 06:24:04;;;;;;;18.13;11.52;;;2.50;99.90;;;;;;5058953;28;20068;-63
2022/11/30 06:26:38;;;;;;;14.02;10.30;;;2.50;99.90;;;;;;5053658;28;20064;-65
2022/11/30 06:29:05;;;;;;;19.73;11.45;;;2.50;99.90;;;;;;5055194;28;20466;-63
2022/11/30 06:31:32;;;;;;;14.60;9.98;;;2.50;99.90;;;;;;5058047;28;20475;-63
2022/11/30 06:34:05;;;;;;;16.52;10.05;;;2.50;99.90;;;;;;5054592;28;20099;-63
2022/11/30 06:36:32;;;;;;;15.05;9.30;;;2.50;99.90;;;;;;5057480;28;20185;-64
2022/11/30 06:39:02;;;;;;;14.07;9.82;;;2.50;99.90;;;;;;5063469;28;20148;-63
2022/11/30 06:41:29;;;;;;;13.27;8.75;;;2.50;99.90;;;;;;5059190;28;20057;-64
2022/11/30 06:43:56;;;;;;;15.27;10.00;;;2.50;99.90;;;;;;5055355;28;20135;-63
2022/11/30 06:46:23;;;;;;;14.82;10.20;;;2.40;99.90;;;;;;5055947;28;20052;-64
2022/11/30 06:48:50;;;;;;;15.25;9.55;;;2.50;99.90;;;;;;5057031;28;20070;-66
2022/11/30 06:51:18;;;;;;;16.80;10.77;;;2.50;99.90;;;;;;5057551;28;20075;-64
2022/11/30 06:53:45;;;;;;;13.40;7.95;;;2.50;99.90;;;;;;5064751;28;20116;-64
2022/11/30 06:56:12;;;;;;;16.05;10.05;;;2.50;99.90;;;;;;5061835;28;20518;-66
2022/11/30 06:58:40;;;;;;;14.15;9.57;;;2.40;99.90;;;;;;5057092;28;20044;-64
2022/11/30 07:01:09;;;;;;;14.93;10.10;;;2.40;99.90;;;;;;5059453;28;20510;-64
2022/11/30 07:03:37;;;;;;;18.48;11.75;;;2.40;99.90;;;;;;5058839;28;20056;-66
2022/11/30 07:06:12;;;;;;;14.23;9.75;;;2.40;99.90;;;;;;5056806;28;20049;-64
2022/11/30 07:08:40;;;;;;;16.85;10.77;;;2.40;99.90;;;;;;5058276;28;20045;-64
2022/11/30 07:11:08;;;;;;;14.55;9.77;;;2.50;99.90;;;;;;5062456;27;20079;-64
2022/11/30 07:13:36;;;;;;;12.98;9.20;;;2.50;99.90;;;;;;5061899;28;20131;-66
2022/11/30 07:16:05;;;;;;;16.60;11.88;;;2.50;99.90;;;;;;5060229;28;20139;-69
2022/11/30 07:18:32;;;;;;;16.48;11.73;;;2.50;99.90;;;;;;5052622;28;20122;-64
2022/11/30 07:21:00;;;;;;;17.60;11.10;;;2.50;99.90;;;;;;5056223;28;20427;-64
2022/11/30 07:26:21;;;;;;;17.90;12.80;;;2.50;99.90;;;;;;5055800;28;20068;-64
2022/11/30 07:28:53;;;;;;;15.95;12.10;;;2.50;99.90;;;;;;5055672;28;20073;-67
2022/11/30 07:31:25;;;;;;;18.50;12.38;;;2.50;99.90;;;;;;5060224;28;20478;-64
2022/11/30 07:33:52;;;;;;;16.35;10.80;;;2.40;99.90;;;;;;5058199;28;20083;-63
2022/11/30 07:36:21;;;;;;;16.90;10.88;;;2.40;99.90;;;;;;5061187;28;20056;-63
2022/11/30 07:38:48;;;;;;;19.20;10.68;;;2.30;99.90;;;;;;5057132;28;20040;-63
2022/11/30 07:41:15;;;;;;;14.68;10.55;;;2.30;99.90;;;;;;5062356;28;20048;-66
2022/11/30 07:43:42;;;;;;;16.73;11.07;;;2.20;99.90;;;;;;5057443;28;20127;-64
2022/11/30 07:46:11;;;;;;;15.07;10.38;;;2.10;99.90;;;;;;5057810;28;20045;-64
2022/11/30 07:48:39;;;;;;;14.23;10.27;;;2.10;99.90;;;;;;5056441;28;20506;-64
2022/11/30 07:51:10;;;;;;;14.10;10.45;;;2.10;99.90;;;;;;5054283;28;20044;-64
2022/11/30 07:53:37;;;;;;;15.15;10.23;;;2.10;99.90;;;;;;5054423;28;20063;-64
2022/11/30 07:56:06;;;;;;;12.13;10.02;;;2.00;99.90;;;;;;5059004;28;20052;-63
2022/11/30 07:58:34;;;;;;;13.90;10.05;;;2.00;99.90;;;;;;5060824;28;20727;-64
2022/11/30 08:01:06;;;;;;;18.15;11.90;;;2.00;99.90;;;;;;5060140;28;20050;-66
2022/11/30 08:03:33;;;;;;;16.15;10.98;;;2.00;99.90;;;;;;5058184;28;20048;-64
2022/11/30 08:06:07;;;;;;;15.85;10.77;;;2.00;99.90;;;;;;5057040;28;20163;-65
2022/11/30 08:08:36;;;;;;;16.50;10.90;;;2.00;99.90;;;;;;5060168;28;20052;-64
2022/11/30 08:11:04;;;;;;;17.70;11.40;;;2.10;99.90;;;;;;5053346;28;20110;-63
2022/11/30 08:13:31;;;;;;;17.33;12.88;;;2.10;99.90;;;;;;5060343;28;20040;-63
2022/11/30 08:16:07;;;;;;;18.02;12.85;;;2.10;99.90;;;;;;5057477;28;20170;-64
2022/11/30 08:18:34;;;;;;;12.93;9.30;;;2.20;99.90;;;;;;5056376;28;20072;-64
2022/11/30 08:21:04;;;;;;;16.73;11.30;;;2.20;99.90;;;;;;5063582;28;20444;-63
2022/11/30 08:23:33;;;;;;;16.73;12.15;;;2.20;99.90;;;;;;5063356;28;20131;-66
2022/11/30 08:26:10;;;;;;;17.70;11.82;;;2.20;99.90;;;;;;5067227;28;20044;-63
2022/11/30 08:28:38;;;;;;;14.75;10.38;;;2.30;99.90;;;;;;5064600;28;20366;-66
2022/11/30 08:31:09;;;;;;;16.80;11.95;;;2.30;99.90;;;;;;5065671;28;20128;-63
2022/11/30 08:33:37;;;;;;;17.20;11.10;;;2.30;99.90;;;;;;5063407;28;20094;-66
2022/11/30 08:36:19;;;;;;;16.63;11.57;;;2.40;99.90;;;;;;5062017;28;20048;-64
2022/11/30 08:38:47;;;;;;;16.20;10.45;;;2.40;99.90;;;;;;5060943;28;20064;-63
2022/11/30 08:41:17;;;;;;;15.98;10.73;;;2.40;99.90;;;;;;5037706;28;20452;-64
2022/11/30 08:43:45;;;;;;;17.33;12.38;;;2.40;99.90;;;;;;5039502;28;20140;-64
2022/11/30 08:46:14;;;;;;;12.07;9.82;;;2.40;99.90;;;;;;5043961;28;20044;-66
2022/11/30 08:49:01;;;;;;;15.02;10.82;;;2.40;99.90;;;;;;5039380;28;20047;-65
2022/11/30 08:51:51;;;;;;;12.68;9.32;;;2.40;99.90;;;;;;5036390;28;20049;-64
2022/11/30 08:54:41;;;;;;;12.10;9.68;;;2.40;99.90;;;;;;5038130;28;20045;-63
2022/11/30 08:57:08;;;;;;;14.98;10.48;;;2.40;99.90;;;;;;5042409;28;20070;-66
2022/11/30 08:59:35;;;;;;;24.55;12.88;;;2.40;99.90;;;;;;5045177;28;20059;-64
2022/11/30 09:02:02;;;;;;;27.33;15.45;;;2.40;99.90;;;;;;5042738;28;20140;-63
2022/11/30 09:04:29;;;;;;;20.35;15.13;;;2.40;99.90;;;;;;5043902;28;20510;-65
2022/11/30 09:06:57;;;;;;;17.75;12.73;;;2.40;99.90;;;;;;5044787;28;20566;-64
2022/11/30 09:09:25;;;;;;;14.55;9.75;;;2.50;99.90;;;;;;5042995;28;20111;-63
2022/11/30 09:11:52;;;;;;;10.35;7.45;;;2.50;99.90;;;;;;5039218;28;20147;-66
2022/11/30 09:14:19;;;;;;;9.80;7.75;;;2.60;99.90;;;;;;5039531;28;20104;-64
2022/11/30 09:16:45;;;;;;;10.18;7.28;;;2.60;99.90;;;;;;5038748;28;20337;-64
2022/11/30 09:19:12;;;;;;;11.27;7.40;;;2.60;99.90;;;;;;5044620;28;20465;-66
2022/11/30 09:21:39;;;;;;;10.18;7.65;;;2.70;99.90;;;;;;5040055;28;20065;-63
2022/11/30 09:24:06;;;;;;;10.48;8.07;;;2.70;99.90;;;;;;5036803;28;20573;-64
2022/11/30 09:26:33;;;;;;;8.93;6.32;;;2.70;99.90;;;;;;5041536;28;20140;-67
2022/11/30 09:29:00;;;;;;;10.70;6.55;;;2.80;99.90;;;;;;5043427;28;20336;-64
2022/11/30 09:31:27;;;;;;;8.98;7.03;;;2.70;99.90;;;;;;5042219;28;20041;-64
2022/11/30 09:33:56;;;;;;;7.57;6.55;;;2.80;99.90;;;;;;5047224;28;20477;-66
2022/11/30 09:36:26;;;;;;;10.07;6.75;;;2.70;99.90;;;;;;5038023;28;20168;-66
2022/11/30 09:38:54;;;;;;;8.00;6.07;;;2.80;99.90;;;;;;5042413;28;20683;-64
2022/11/30 09:41:32;;;;;;;10.32;6.40;;;2.80;99.90;;;;;;5061896;28;20044;-64
2022/11/30 09:43:59;;;;;;;8.60;6.68;;;2.90;99.90;;;;;;5058609;28;20764;-67
2022/11/30 09:46:36;;;;;;;7.05;5.43;;;2.90;99.90;;;;;;5062473;28;20048;-64
2022/11/30 09:49:20;;;;;;;8.60;5.65;;;3.00;99.90;;;;;;5056165;28;20044;-64
2022/11/30 09:51:49;;;;;;;9.13;6.25;;;3.00;99.90;;;;;;5056326;28;20076;-64
2022/11/30 09:54:34;;;;;;;9.82;7.43;;;3.10;99.90;;;;;;5058499;28;20184;-63
2022/11/30 09:57:22;;;;;;;8.13;6.22;;;3.10;99.90;;;;;;5060105;28;20068;-64
2022/11/30 10:00:16;;;;;;;10.07;7.45;;;3.10;99.90;;;;;;5063673;28;20114;-63
2022/11/30 10:02:44;;;;;;;9.30;6.70;;;3.10;99.90;;;;;;5063555;28;20123;-60
2022/11/30 10:05:20;;;;;;;9.52;5.85;;;3.20;99.90;;;;;;5064121;28;20114;-61
2022/11/30 10:08:09;;;;;;;10.98;7.45;;;3.20;99.90;;;;;;5054611;28;20061;-61
2022/11/30 10:10:55;;;;;;;8.85;6.85;;;3.20;99.90;;;;;;5056560;28;20056;-61
2022/11/30 10:13:53;;;;;;;11.15;6.90;;;3.30;99.90;;;;;;5060556;28;20063;-61
2022/11/30 10:16:56;;;;;;;7.72;6.30;;;3.30;99.90;;;;;;5057812;28;20079;-60
2022/11/30 10:19:43;;;;;;;7.80;6.80;;;3.30;99.90;;;;;;5059201;28;20070;-60
2022/11/30 10:22:34;;;;;;;9.77;6.43;;;3.40;99.90;;;;;;5058244;28;20049;-61
2022/11/30 10:25:24;;;;;;;8.10;6.30;;;3.40;99.90;;;;;;5056291;28;20040;-62
2022/11/30 10:27:53;;;;;;;8.63;6.28;;;3.30;99.90;;;;;;5058107;28;20051;-61
2022/11/30 10:30:24;;;;;;;8.18;5.80;;;3.30;99.90;;;;;;5060668;28;20124;-61
2022/11/30 10:32:53;;;;;;;7.78;5.88;;;3.30;99.90;;;;;;5056505;28;20544;-61
2022/11/30 10:35:40;;;;;;;8.07;6.15;;;3.40;99.90;;;;;;5058888;28;20143;-61
2022/11/30 10:38:23;;;;;;;9.48;6.25;;;3.40;99.90;;;;;;5060831;28;20072;-61
2022/11/30 10:41:03;;;;;;;8.68;6.78;;;3.40;99.90;;;;;;5049025;28;20075;-64
2022/11/30 10:43:37;;;;;;;8.60;6.40;;;3.50;99.90;;;;;;5056449;28;20059;-61
2022/11/30 10:46:04;;;;;;;8.90;7.28;;;3.50;99.90;;;;;;5063736;28;20098;-60
2022/11/30 10:48:39;;;;;;;8.27;7.03;;;3.50;99.90;;;;;;5057582;28;20052;-61
2022/11/30 10:51:09;;;;;;;10.70;7.03;;;3.60;99.90;;;;;;5059300;28;20135;-61
2022/11/30 10:53:36;;;;;;;12.95;7.38;;;3.60;99.90;;;;;;5061980;28;20541;-62
2022/11/30 10:56:12;;;;;;;10.68;7.53;;;3.60;99.90;;;;;;5061412;28;20045;-61
2022/11/30 10:58:59;;;;;;;9.95;7.47;;;3.60;99.90;;;;;;5057050;28;20132;-61
2022/11/30 11:01:40;;;;;;;8.73;7.57;;;3.60;99.90;;;;;;5063577;28;20049;-63
2022/11/30 11:04:15;;;;;;;;;;;3.60;99.90;;;;;;5062080;28;20052;-61
2022/11/30 11:06:48;;;;;;;7.32;5.68;;;3.50;99.90;;;;;;5060123;28;19972;-61
2022/11/30 11:09:45;;;;;;;8.68;6.18;;;3.50;99.90;;;;;;5054980;28;20082;-61
2022/11/30 11:12:29;;;;;;;8.40;6.53;;;3.50;99.90;;;;;;5060657;28;20056;-61
2022/11/30 11:15:08;;;;;;;7.85;5.85;;;3.60;99.90;;;;;;5054648;28;20058;-61
2022/11/30 11:17:35;;;;;;;10.13;6.90;;;3.60;99.90;;;;;;5057551;28;20529;-64
2022/11/30 11:20:02;;;;;;;8.88;6.78;;;3.50;99.90;;;;;;5056059;28;20041;-61
2022/11/30 11:22:30;;;;;;;9.93;7.93;;;3.60;99.90;;;;;;5057300;28;20159;-61
2022/11/30 11:25:26;;;;;;;8.75;7.10;;;3.60;99.90;;;;;;5062017;28;20064;-61
2022/11/30 11:28:00;;;;;;;10.50;7.03;;;3.50;99.90;;;;;;5055845;28;20102;-61
2022/11/30 11:30:29;;;;;;;9.13;7.07;;;3.60;99.90;;;;;;5057062;28;20122;-63
2022/11/30 11:32:59;;;;;;;10.65;7.68;;;3.60;99.90;;;;;;5062255;28;20082;-62
2022/11/30 11:35:34;;;;;;;12.50;8.57;;;3.50;99.90;;;;;;5060522;28;20064;-61
2022/11/30 11:38:01;;;;;;;12.32;8.27;;;3.50;99.90;;;;;;5055526;28;20347;-61
2022/11/30 11:40:28;;;;;;;13.75;9.15;;;3.50;99.90;;;;;;5053236;28;20057;-63
2022/11/30 11:42:58;;;;;;;7.97;6.30;;;3.50;99.90;;;;;;5053613;28;20423;-62
2022/11/30 11:45:29;;;;;;;9.27;6.93;;;3.50;99.90;;;;;;5056045;28;20525;-61
2022/11/30 11:48:02;;;;;;;9.23;7.32;;;3.50;99.90;;;;;;5056198;28;20045;-61
2022/11/30 11:50:31;;;;;;;9.68;7.07;;;3.50;99.90;;;;;;5051795;28;20105;-62
2022/11/30 11:53:33;;;;;;;12.52;9.48;;;3.50;99.90;;;;;;5051948;28;20426;-60
2022/11/30 11:56:19;;;;;;;11.75;8.45;;;3.60;99.90;;;;;;5056714;28;20045;-61
2022/11/30 11:59:01;;;;;;;11.68;7.90;;;3.70;99.90;;;;;;5058381;28;20501;-62
2022/11/30 12:01:49;;;;;;;14.10;10.25;;;3.70;99.90;;;;;;5059067;28;20055;-62
2022/11/30 12:04:45;;;;;;;14.65;10.05;;;3.70;99.90;;;;;;5053459;28;20075;-63
2022/11/30 12:07:35;;;;;;;14.02;10.48;;;3.60;99.90;;;;;;5057754;28;20079;-62
2022/11/30 12:10:26;;;;;;;13.50;8.93;;;3.60;99.90;;;;;;5048242;28;20049;-62
2022/11/30 12:13:21;;;;;;;11.98;8.70;;;3.60;99.90;;;;;;5059873;28;20466;-63
2022/11/30 12:16:04;;;;;;;11.20;8.73;;;3.60;99.90;;;;;;5056944;28;20437;-61
2022/11/30 12:18:35;;;;;;;14.23;11.35;;;3.60;99.90;;;;;;5055408;28;20055;-61
2022/11/30 12:21:24;;;;;;;14.65;11.25;;;3.60;99.90;;;;;;5054195;28;20041;-63
2022/11/30 12:24:03;;;;;;;15.27;12.00;;;3.60;99.90;;;;;;5059563;28;20105;-62
2022/11/30 12:26:40;;;;;;;15.27;10.02;;;3.60;99.90;;;;;;5050615;28;20053;-61
2022/11/30 12:29:23;;;;;;;15.38;10.10;;;3.60;99.90;;;;;;5053259;28;20402;-62
2022/11/30 12:32:28;;;;;;;14.75;10.55;;;3.60;99.90;;;;;;5063371;28;20497;-61
2022/11/30 12:35:01;;;;;;;14.75;9.55;;;3.50;99.90;;;;;;5059181;28;20132;-61
2022/11/30 12:38:06;;;;;;;10.85;9.25;;;3.50;99.90;;;;;;5056274;28;20052;-61
2022/11/30 12:40:35;;;;;;;10.95;8.43;;;3.50;99.90;;;;;;5057067;28;20151;-61
2022/11/30 12:43:02;;;;;;;14.45;8.52;;;3.50;99.90;;;;;;5058410;28;20054;-61
2022/11/30 12:45:35;;;;;;;11.48;8.38;;;3.50;99.90;;;;;;5055908;28;20053;-61
2022/11/30 12:48:20;;;;;;;8.85;7.25;;;3.50;99.90;;;;;;5057529;28;20041;-62
2022/11/30 12:51:11;;;;;;;10.32;8.00;;;3.50;99.90;;;;;;5053562;28;20044;-61
2022/11/30 12:54:01;;;;;;;13.13;7.72;;;3.50;99.90;;;;;;5060505;28;20095;-65
2022/11/30 12:56:56;;;;;;;14.30;10.50;;;3.50;99.90;;;;;;5052343;28;20126;-62
2022/11/30 12:59:35;;;;;;;12.52;11.20;;;3.50;99.90;;;;;;5055096;28;20052;-61
2022/11/30 13:02:23;;;;;;;14.60;10.43;;;3.50;99.90;;;;;;5061661;28;20057;-63
2022/11/30 13:05:01;;;;;;;19.83;16.35;;;3.50;99.90;;;;;;5054618;27;20059;-60
2022/11/30 13:07:51;;;;;;;18.50;15.13;;;3.60;99.90;;;;;;5061294;28;20132;-62
2022/11/30 13:10:40;;;;;;;14.30;9.93;;;3.50;99.90;;;;;;5060903;28;20048;-63